Latest Coastal Weather Observations for Low Head

IDV60701

Issued at 7:45 pm EDT Friday 28 November 2014 (issued every 10 minutes, with the page automatically refreshed every 10 minutes)

About coastal observations | Map of coastal stations | Coastal observations for VIC | Marine services | Other Formats
Station Details ID: 091293 Name: LOW HEAD Lat: -41.05 Lon: 146.79 Height: 3.0 m
Data from the previous 72 hours. | See also: Recent months at Low Head
Date/Time
EDT
Temp

°C
Wind Pressure Rain
since 9am
mm
Weather Cloud Vis
km
Sea
Height
m
Swell
Dir
 
Speed
knots
Gust
knots
hPa Trend Height
m
Period
s
Dir
28/07:30pm 15.0 NE 6 7 1019.8 - 0.0 - - - - - - -
28/07:00pm 15.4 NNE 6 7 1019.6 - 0.0 - - - - - - -
28/06:30pm 15.5 NE 6 8 1019.5 - 0.0 - - - - - - -
28/06:00pm 15.6 NNE 7 8 1019.6 - 0.0 - - - - - - -
28/05:30pm 15.2 NNE 9 10 1019.6 - 0.0 - - - - - - -
28/05:00pm 15.2 NNE 10 12 1019.7 - 0.0 - - - - - - -
28/04:30pm 15.6 NNE 10 13 1019.9 - 0.0 - - - - - - -
28/04:00pm 16.1 NNE 11 13 1020.0 - 0.0 - - - - - - -
28/03:30pm 15.7 NNE 12 14 1020.2 - 0.0 - - - - - - -
28/03:00pm 16.1 NNE 12 14 1020.6 F 0.0 Fine Mostly cloudy 25 <0.1 0.2 3 -
28/02:30pm 15.8 NNE 11 12 1020.8 - 0.0 - - - - - - -
28/02:00pm 16.4 NNE 10 11 1021.3 - 0.0 - - - - - - -
28/01:30pm 15.7 NNE 9 10 1021.6 - 0.0 - - - - - - -
28/01:00pm 16.2 NNE 9 11 1021.7 - 0.0 - - - - - - -
28/12:30pm 16.1 N 10 11 1021.9 - 0.0 - - - - - - -
28/12:00pm 16.4 N 10 11 1022.1 - 0.0 - - - - - - -
28/11:30am 16.0 NNE 11 12 1022.2 - 0.0 - - - - - - -
28/11:00am 15.5 NNE 11 11 1022.3 - 0.0 - - - - - - -
28/10:30am 15.6 NE 10 11 1022.6 - 0.0 - - - - - - -
28/10:00am 15.4 NE 9 11 1022.8 - 0.0 - - - - - - -
28/09:30am 15.6 NE 8 9 1023.0 - 0.0 - - - - - - -
28/09:00am 14.8 ENE 9 10 1022.9 F 0.0 Fine Mostly cloudy 25 <0.1 0.2 3 NE
28/08:30am 14.5 ENE 9 11 1022.8 - 0.0 - - - - - - -
28/08:00am 14.5 E 8 9 1022.9 - 0.0 - - - - - - -
28/07:30am 13.4 E 9 11 1022.8 - 0.0 - - - - - - -
28/07:00am 13.0 E 10 12 1022.6 - 0.0 - - - - - - -
28/06:30am 12.1 E 9 12 1022.6 - 0.0 - - - - - - -
28/06:00am 12.0 E 8 11 1022.5 R 0.0 Fine Mostly cloudy 20 <0.1 0.3 3 -
28/05:30am 11.4 ESE 6 8 1022.4 - 0.0 - - - - - - -
28/05:00am 11.2 ESE 7 8 1022.1 - 0.0 - - - - - - -
28/04:30am 11.5 E 8 11 1022.1 - 0.0 - - - - - - -
28/04:00am 11.9 E 8 11 1022.2 - 0.0 - - - - - - -
28/03:30am 12.0 ESE 9 13 1022.2 - 0.0 - - - - - - -
28/03:00am 11.9 ESE 8 11 1022.4 - 0.0 - - - - - - -
28/02:30am 11.5 ESE 8 11 1022.7 - 0.0 - - - - - - -
28/02:00am 10.8 SE 6 8 1022.5 - 0.0 - - - - - - -
28/01:30am 10.8 ESE 6 8 1022.8 - 0.0 - - - - - - -
28/01:00am 12.2 E 12 14 1022.9 - 0.0 - - - - - - -
28/12:30am 12.2 E 11 15 1023.1 - 0.0 - - - - - - -
28/12:00am 12.5 E 11 14 1023.2 - 0.0 - - - - - - -
 
Date/Time
EDT
Temp

°C
Wind Pressure Rain
since 9am
mm
Weather Cloud Vis
km
Sea
Height
m
Swell
Dir
 
Speed
knots
Gust
knots
hPa Trend Height
m
Period
s
Dir
27/11:30pm 12.8 E 14 17 1023.4 - 0.0 - - - - - - -
27/11:00pm 13.7 ENE 19 22 1023.0 - 0.0 - - - - - - -
27/10:30pm 13.7 ENE 20 22 1023.1 - 0.0 - - - - - - -
27/10:00pm 13.6 ENE 20 23 1023.1 - 0.0 - - - - - - -
27/09:30pm 14.2 ENE 22 25 1022.9 - 0.0 - - - - - - -
27/09:00pm 14.5 ENE 21 25 1022.6 - 0.0 - - - - - - -
27/08:30pm 14.9 ENE 22 25 1022.2 - 0.0 - - - - - - -
27/08:00pm 15.3 ENE 21 24 1021.9 - 0.0 - - - - - - -
27/07:49pm 15.5 ENE 18 24 1021.8 - 0.0 - - - - - - -
27/07:30pm 15.9 NE 11 13 1021.6 - 0.0 - - - - - - -
27/07:00pm 16.7 NW 8 10 1021.2 - 0.0 - - - - - - -
27/06:30pm 17.2 NW 10 11 1021.0 - 0.0 - - - - - - -
27/06:00pm 17.5 NW 9 12 1021.1 - 0.0 - - - - - - -
27/05:30pm 17.5 NW 11 13 1021.4 - 0.0 - - - - - - -
27/05:00pm 17.1 NW 9 10 1021.6 - 0.0 - - - - - - -
27/04:30pm 17.2 NNW 11 13 1021.7 - 0.0 - - - - - - -
27/04:00pm 16.8 NNW 12 14 1022.0 - 0.0 - - - - - - -
27/03:30pm 16.3 NNW 14 15 1022.2 - 0.0 - - - - - - -
27/03:00pm 16.3 NNW 14 16 1022.3 R 0.0 Fine Mostly clear 25 <0.5 0.5 3 NW
27/02:30pm 17.0 NW 15 17 1022.5 - 0.0 - - - - - - -
27/02:00pm 17.3 NW 15 17 1022.7 - 0.0 - - - - - - -
27/01:30pm 17.4 NW 13 15 1022.7 - 0.0 - - - - - - -
27/01:00pm 17.0 NW 13 14 1022.8 - 0.0 - - - - - - -
27/12:30pm 16.3 NW 12 13 1022.8 - 0.0 - - - - - - -
27/12:00pm 17.0 NW 9 11 1022.9 - 0.0 - - - - - - -
27/11:30am 15.7 NNW 8 9 1023.3 - 0.0 - - - - - - -
27/11:00am 16.1 WNW 8 10 1023.5 - 0.0 - - - - - - -
27/10:30am 15.7 WNW 6 7 1023.7 - 0.0 - - - - - - -
27/10:00am 14.8 WNW 4 5 1023.7 - 0.0 - - - - - - -
27/09:30am 13.3 WSW 4 5 1023.9 - 0.0 - - - - - - -
27/09:00am 12.8 SSW 3 5 1024.0 F 0.0 Fine Partly cloudy 25 <0.5 0.3 3 NW
27/08:30am 12.1 SSW 2 5 1023.8 - 0.0 - - - - - - -
27/08:00am 11.0 S 5 6 1023.7 - 0.0 - - - - - - -
27/07:30am 10.5 SSE 6 8 1023.3 - 0.0 - - - - - - -
27/07:00am 9.9 S 8 9 1023.1 - 0.0 - - - - - - -
27/06:30am 9.8 S 9 11 1022.7 - 0.0 - - - - - - -
27/06:00am 9.8 SSW 9 11 1022.4 S 0.0 Fine Partly cloudy 25 <0.5 0.3 3 NW
27/05:30am 10.1 SSW 8 9 1022.2 - 0.0 - - - - - - -
27/05:00am 10.4 S 10 12 1022.0 - 0.0 - - - - - - -
27/04:30am 10.4 SSW 9 11 1021.7 - 0.0 - - - - - - -
27/04:00am 10.4 SSW 7 9 1021.5 - 0.0 - - - - - - -
27/03:30am 10.7 S 10 11 1021.4 - 0.0 - - - - - - -
27/03:00am 9.7 SSE 6 7 1021.2 - 0.0 - - - - - - -
27/02:30am 10.1 S 5 8 1021.2 - 0.0 - - - - - - -
27/02:00am 10.7 S 4 6 1021.2 - 0.0 - - - - - - -
27/01:30am 11.3 S 4 7 1021.2 - 0.0 - - - - - - -
27/01:00am 11.8 S 9 11 1021.2 - 0.0 - - - - - - -
27/12:30am 12.4 SSW 12 13 1021.0 - 0.0 - - - - - - -
27/12:00am 13.0 SSW 11 14 1020.9 - 0.0 - - - - - - -
 
Date/Time
EDT
Temp

°C
Wind Pressure Rain
since 9am
mm
Weather Cloud Vis
km
Sea
Height
m
Swell
Dir
 
Speed
knots
Gust
knots
hPa Trend Height
m
Period
s
Dir
26/11:30pm 13.6 S 11 13 1020.8 - 0.0 - - - - - - -
26/11:00pm 12.4 S 7 9 1020.5 - 0.0 - - - - - - -
26/10:30pm 13.6 SW 8 9 1020.3 - 0.0 - - - - - - -
26/10:00pm 14.1 SW 9 10 1020.1 - 0.0 - - - - - - -
26/09:30pm 14.4 WSW 8 9 1019.5 - 0.0 - - - - - - -
26/09:00pm 14.9 SW 12 15 1019.1 - 0.0 - - - - - - -
26/08:30pm 15.5 WSW 14 18 1018.6 - 0.0 - - - - - - -
26/08:00pm 16.2 WSW 18 21 1017.9 - 0.0 - - - - - - -
26/07:30pm 16.6 W 18 22 1017.5 - 0.0 - - - - - - -
26/07:00pm 16.1 W 21 24 1017.1 - 0.0 - - - - - - -
26/06:30pm 16.3 W 20 23 1016.6 - 0.0 - - - - - - -
26/06:00pm 16.7 WNW 19 21 1016.4 - 0.0 - - - - - - -
26/05:30pm 16.6 W 21 25 1016.2 - 0.0 - - - - - - -
26/05:00pm 16.6 W 22 25 1016.1 - 0.0 - - - - - - -
26/04:30pm 16.5 W 24 28 1015.9 - 0.0 - - - - - - -
26/04:00pm 17.1 WNW 21 23 1015.8 - 0.0 - - - - - - -
26/03:30pm 17.2 WNW 22 25 1015.7 - 0.0 - - - - - - -
26/03:00pm 16.6 W 24 28 1015.6 R 0.0 Fine Mostly clear 25 1 1.5 3 NW
26/02:30pm 16.6 W 24 27 1015.6 - 0.0 - - - - - - -
26/02:00pm 16.7 W 22 26 1015.8 - 0.0 - - - - - - -
26/01:30pm 17.0 WNW 22 27 1015.6 - 0.0 - - - - - - -
26/01:00pm 16.3 W 20 24 1015.9 - 0.0 - - - - - - -
26/12:30pm 16.1 W 24 27 1015.3 - 0.0 - - - - - - -
26/12:00pm 15.8 W 23 27 1015.4 - 0.0 - - - - - - -
26/11:30am 16.0 W 20 24 1015.6 - 0.0 - - - - - - -
26/11:00am 15.9 W 19 22 1015.7 - 0.0 - - - - - - -
26/10:30am 15.3 W 20 24 1015.6 - 0.0 - - - - - - -
26/10:00am 14.7 W 22 26 1015.4 - 0.0 - - - - - - -
26/09:30am 14.4 W 23 28 1015.0 - 0.0 - - - - - - -
26/09:00am 14.4 W 20 24 1015.0 F 0.0 Fine Partly cloudy 25 2 1.5 3 NW
26/08:30am 14.4 W 21 25 1014.9 - 0.0 - - - - - - -
26/08:00am 14.0 W 19 24 1014.5 - 0.0 - - - - - - -
26/07:30am 14.0 W 22 26 1014.0 - 0.0 - - - - - - -
26/07:00am 13.8 WNW 23 28 1013.7 - 0.0 - - - - - - -
26/06:30am 13.6 WNW 23 31 1013.4 - 0.0 - - - - - - -
26/06:00am 13.4 WNW 23 30 1013.4 S 0.0 Fine Partly cloudy 25 2 1.5 3 NW
26/05:30am 13.4 WNW 23 29 1013.1 - 0.0 - - - - - - -
26/05:00am 13.3 WNW 25 32 1012.8 - 0.0 - - - - - - -
26/04:30am 13.3 WNW 25 32 1012.7 - 0.0 - - - - - - -
26/04:00am 13.2 WNW 27 31 1012.6 - 0.0 - - - - - - -
26/03:30am 13.2 WNW 26 30 1012.6 - 0.0 - - - - - - -
26/03:00am 13.2 WNW 27 32 1013.1 - 0.0 - - - - - - -
26/02:30am 13.2 WNW 26 32 1013.4 - 0.0 - - - - - - -
26/02:00am 13.2 WNW 27 32 1013.8 - 0.0 - - - - - - -
26/01:30am 13.2 WNW 26 31 1014.0 - 0.0 - - - - - - -
26/01:00am 13.2 WNW 23 28 1014.5 - 0.0 - - - - - - -
26/12:30am 13.1 WNW 23 27 1014.7 - 0.0 - - - - - - -
26/12:00am 13.0 W 22 26 1014.9 - 0.0 - - - - - - -
 
Date/Time
EDT
Temp

°C
Wind Pressure Rain
since 9am
mm
Weather Cloud Vis
km
Sea
Height
m
Swell
Dir
 
Speed
knots
Gust
knots
hPa Trend Height
m
Period
s
Dir
25/11:30pm 13.3 W 20 25 1015.3 - 0.0 - - - - - - -
25/11:00pm 13.0 W 21 25 1015.3 - 0.0 - - - - - - -
25/10:30pm 12.9 W 22 25 1015.5 - 0.0 - - - - - - -
25/10:00pm 13.1 W 21 25 1015.4 - 0.0 - - - - - - -
25/09:30pm 13.3 W 25 29 1015.1 - 0.0 - - - - - - -
25/09:00pm 13.5 W 26 29 1014.5 - 0.0 - - - - - - -
25/08:30pm 13.7 W 24 28 1014.2 - 0.0 - - - - - - -
25/08:00pm 14.1 W 26 32 1014.0 - 0.0 - - - - - - -

Other Formats:

Comma delimited format used in spreadsheet applications
http://www.bom.gov.au/fwo/IDV60701/IDV60701.95964.axf

JavaScript Object Notation format (JSON) in row-major order
http://www.bom.gov.au/fwo/IDV60701/IDV60701.95964.json